createdAt,value
2018-04-11T00:01:56.265Z,4.43
2018-04-11T00:04:24.973Z,4.25
2018-04-11T00:06:54.432Z,4.10
2018-04-11T00:09:23.141Z,4.70
2018-04-11T00:11:51.838Z,4.35
2018-04-11T00:14:21.314Z,5.00
2018-04-11T00:16:50.025Z,5.03
2018-04-11T00:19:18.733Z,4.72
2018-04-11T00:21:48.200Z,4.10
2018-04-11T00:24:16.902Z,3.87
2018-04-11T00:26:45.614Z,4.40
2018-04-11T00:29:14.326Z,5.25
2018-04-11T00:31:43.037Z,5.32
2018-04-11T00:34:11.518Z,5.00
2018-04-11T00:36:40.218Z,4.82
2018-04-11T00:39:08.924Z,4.62
2018-04-11T00:41:38.397Z,5.20
2018-04-11T00:44:07.118Z,5.30
2018-04-11T00:46:36.590Z,5.25
2018-04-11T00:49:05.295Z,5.07
2018-04-11T00:51:33.990Z,5.12
2018-04-11T00:54:02.702Z,5.25
2018-04-11T00:56:32.178Z,5.45
2018-04-11T00:59:00.892Z,6.15
2018-04-11T01:01:30.369Z,5.78
2018-04-11T01:03:59.081Z,6.07
2018-04-11T01:06:28.553Z,5.72
2018-04-11T01:08:57.248Z,4.85
2018-04-11T01:11:25.980Z,6.07
2018-04-11T01:13:54.681Z,5.30
2018-04-11T01:16:23.046Z,5.90
2018-04-11T01:18:51.760Z,6.10
2018-04-11T01:21:20.470Z,5.70
2018-04-11T01:23:49.165Z,5.47
2018-04-11T01:26:17.884Z,5.72
2018-04-11T01:28:46.611Z,5.70
2018-04-11T01:31:15.317Z,5.45
2018-04-11T01:33:44.029Z,5.85
2018-04-11T01:36:13.510Z,6.10
2018-04-11T01:38:42.222Z,6.20
2018-04-11T01:41:11.697Z,5.78
2018-04-11T01:43:40.406Z,5.93
2018-04-11T01:46:09.122Z,6.60
2018-04-11T01:48:37.605Z,6.10
2018-04-11T01:51:07.085Z,6.15
2018-04-11T01:53:36.573Z,6.70
2018-04-11T01:56:05.270Z,6.50
2018-04-11T01:58:33.980Z,6.15
2018-04-11T02:01:02.705Z,6.87
2018-04-11T02:03:31.418Z,6.72
2018-04-11T02:06:00.122Z,6.75
2018-04-11T02:08:28.836Z,6.25
2018-04-11T02:10:58.081Z,5.78
2018-04-11T02:13:26.806Z,6.20
2018-04-11T02:15:55.282Z,5.72
2018-04-11T02:18:23.756Z,6.53
2018-04-11T02:20:52.466Z,5.87
2018-04-11T02:23:21.949Z,6.95
2018-04-11T02:25:50.665Z,6.68
2018-04-11T02:28:20.141Z,6.65
2018-04-11T02:30:48.867Z,6.97
2018-04-11T02:33:17.577Z,6.95
2018-04-11T02:35:46.298Z,7.12
2018-04-11T02:38:15.013Z,6.68
2018-04-11T02:40:44.486Z,6.78
2018-04-11T02:43:13.203Z,6.70
2018-04-11T02:45:42.682Z,6.80
2018-04-11T02:48:11.389Z,7.22
2018-04-11T02:50:40.864Z,7.12
2018-04-11T02:53:09.583Z,6.82
2018-04-11T02:55:38.373Z,6.82
2018-04-11T02:58:07.167Z,7.50
2018-04-11T03:00:36.739Z,8.10
2018-04-11T03:03:05.545Z,7.40
2018-04-11T03:05:34.354Z,8.70
2018-04-11T03:08:03.159Z,7.93
2018-04-11T03:10:31.961Z,8.75
2018-04-11T03:13:00.757Z,7.97
2018-04-11T03:15:29.558Z,7.85
2018-04-11T03:17:58.373Z,7.75
2018-04-11T03:20:27.195Z,8.35
2018-04-11T03:22:55.991Z,7.03
2018-04-11T03:25:24.789Z,8.10
2018-04-11T03:27:53.596Z,7.72
2018-04-11T03:30:22.398Z,8.50
2018-04-11T03:32:51.209Z,8.10
2018-04-11T03:35:20.011Z,8.52
2018-04-11T03:37:49.587Z,8.68
2018-04-11T03:40:18.394Z,7.82
2018-04-11T03:42:47.197Z,9.23
2018-04-11T03:45:15.996Z,8.27
2018-04-11T03:47:45.620Z,9.43
2018-04-11T03:50:14.430Z,8.90
2018-04-11T03:52:43.227Z,9.45
2018-04-11T03:55:12.796Z,7.82
2018-04-11T03:57:42.371Z,8.93
2018-04-11T04:00:10.846Z,8.45
2018-04-11T04:02:40.425Z,8.00
2018-04-11T04:05:09.226Z,7.80
2018-04-11T04:07:38.062Z,8.88
2018-04-11T04:10:07.026Z,7.65
2018-04-11T04:12:35.824Z,9.15
2018-04-11T04:15:15.764Z,8.43
2018-04-11T04:17:55.535Z,10.70
2018-04-11T04:20:35.525Z,9.65
2018-04-11T04:23:03.661Z,9.68
2018-04-11T04:25:31.562Z,9.80
2018-04-11T04:28:00.364Z,9.65
2018-04-11T04:30:29.238Z,9.00
2018-04-11T04:32:59.207Z,9.13
2018-04-11T04:35:28.017Z,9.95
2018-04-11T04:37:56.830Z,10.88
2018-04-11T04:40:25.645Z,10.10
2018-04-11T04:42:54.449Z,10.57
2018-04-11T04:45:23.251Z,10.88
2018-04-11T04:47:52.075Z,10.57
2018-04-11T04:50:21.659Z,11.10
2018-04-11T04:52:50.479Z,10.65
2018-04-11T04:55:20.042Z,9.25
2018-04-11T04:57:49.746Z,9.15
2018-04-11T05:00:18.711Z,9.65
2018-04-11T05:02:47.295Z,10.75
2018-04-11T05:05:16.105Z,10.50
2018-04-11T05:07:44.917Z,10.15
2018-04-11T05:10:13.722Z,9.43
2018-04-11T05:12:42.653Z,11.15
2018-04-11T05:15:11.250Z,10.30
2018-04-11T05:17:40.059Z,10.77
2018-04-11T05:20:08.642Z,12.57
2018-04-11T05:22:38.183Z,12.43
2018-04-11T05:25:06.783Z,10.43
2018-04-11T05:27:36.360Z,10.00
2018-04-11T05:30:04.835Z,9.80
2018-04-11T05:32:34.200Z,11.98
2018-04-11T05:35:03.043Z,12.30
2018-04-11T05:37:31.875Z,11.85
2018-04-11T05:40:01.548Z,11.60
2018-04-11T05:42:30.363Z,11.25
2018-04-11T05:44:59.944Z,11.05
2018-04-11T05:47:28.756Z,11.40
2018-04-11T05:49:58.354Z,10.13
2018-04-11T05:52:27.935Z,12.52
2018-04-11T05:54:56.763Z,10.70
2018-04-11T05:57:26.359Z,11.68
2018-04-11T05:59:55.181Z,11.15
2018-04-11T06:02:23.992Z,12.15
2018-04-11T06:04:52.806Z,10.25
2018-04-11T06:07:21.615Z,10.50
2018-04-11T06:09:50.431Z,11.23
2018-04-11T06:12:19.246Z,10.38
2018-04-11T06:14:48.057Z,18.80
2018-04-11T06:17:16.869Z,24.65
2018-04-11T06:19:45.694Z,12.93
2018-04-11T06:22:15.255Z,11.68
2018-04-11T06:24:44.075Z,13.90
2018-04-11T06:27:13.655Z,13.82
2018-04-11T06:29:42.465Z,12.77
2018-04-11T06:32:11.384Z,12.10
2018-04-11T06:34:40.198Z,12.70
2018-04-11T06:37:09.020Z,12.20
2018-04-11T06:39:37.853Z,12.57
2018-04-11T06:42:06.670Z,13.18
2018-04-11T06:44:35.481Z,13.18
2018-04-11T06:47:04.289Z,11.75
2018-04-11T06:49:33.102Z,12.52
2018-04-11T06:52:02.670Z,13.80
2018-04-11T06:54:31.470Z,13.10
2018-04-11T06:56:59.937Z,11.98
2018-04-11T06:59:28.760Z,12.70
2018-04-11T07:01:58.366Z,13.65
2018-04-11T07:04:27.221Z,13.98
2018-04-11T07:06:56.027Z,14.18
2018-04-11T07:09:24.855Z,12.77
2018-04-11T07:11:54.470Z,12.70
2018-04-11T07:14:23.286Z,12.65
2018-04-11T07:16:52.498Z,12.70
2018-04-11T07:19:21.309Z,12.43
2018-04-11T07:21:50.140Z,13.45
2018-04-11T07:24:18.955Z,14.18
2018-04-11T07:26:47.763Z,12.95
2018-04-11T07:29:16.569Z,13.80
2018-04-11T07:31:45.505Z,12.95
2018-04-11T07:34:14.314Z,12.35
2018-04-11T07:36:43.889Z,13.35
2018-04-11T07:39:13.467Z,12.30
2018-04-11T07:41:42.274Z,12.07
2018-04-11T07:44:11.859Z,12.60
2018-04-11T07:46:40.670Z,11.73
2018-04-11T07:49:09.475Z,10.52
2018-04-11T07:51:39.052Z,11.40
2018-04-11T07:54:07.882Z,10.38
2018-04-11T07:56:37.299Z,9.80
2018-04-11T07:59:06.097Z,8.93
2018-04-11T08:01:34.897Z,8.90
2018-04-11T08:04:03.708Z,9.15
2018-04-11T08:06:32.509Z,8.02
2018-04-11T08:09:01.316Z,9.07
2018-04-11T08:11:30.894Z,7.95
2018-04-11T08:13:59.703Z,7.93
2018-04-11T08:16:28.266Z,8.13
2018-04-11T08:18:57.062Z,8.00
2018-04-11T08:21:25.636Z,7.15
2018-04-11T08:23:53.693Z,6.40
2018-04-11T08:26:22.250Z,7.28
2018-04-11T08:28:51.030Z,7.40
2018-04-11T08:31:20.605Z,7.85
2018-04-11T08:33:49.405Z,6.40
2018-04-11T08:36:18.202Z,6.78
2018-04-11T08:38:46.998Z,6.93
2018-04-11T08:41:16.551Z,7.15
2018-04-11T08:43:45.346Z,7.07
2018-04-11T08:46:14.130Z,6.75
2018-04-11T08:48:42.934Z,6.80
2018-04-11T08:51:11.739Z,6.50
2018-04-11T08:53:40.545Z,7.00
2018-04-11T08:56:09.344Z,5.75
2018-04-11T08:58:38.927Z,6.25
2018-04-11T09:01:07.721Z,5.93
2018-04-11T09:03:36.518Z,6.25
2018-04-11T09:06:05.000Z,5.90
2018-04-11T09:08:33.560Z,5.32
2018-04-11T09:11:02.361Z,5.65
2018-04-11T09:13:31.162Z,6.57
2018-04-11T09:15:59.953Z,5.70
2018-04-11T09:18:28.741Z,4.80
2018-04-11T09:20:57.557Z,5.18
2018-04-11T09:23:27.114Z,5.82
2018-04-11T09:25:55.570Z,5.10
2018-04-11T09:28:24.361Z,5.12
2018-04-11T09:30:53.172Z,5.30
2018-04-11T09:33:21.966Z,5.10
2018-04-11T09:35:50.761Z,5.35
2018-04-11T09:38:19.554Z,4.85
2018-04-11T09:40:48.352Z,4.75
2018-04-11T09:43:17.137Z,4.40
2018-04-11T09:45:45.939Z,4.25
2018-04-11T09:48:14.729Z,5.05
2018-04-11T09:50:43.522Z,4.87
2018-04-11T09:53:12.313Z,4.87
2018-04-11T09:55:41.647Z,4.65
2018-04-11T09:58:10.437Z,5.05
2018-04-11T10:00:39.018Z,4.90
2018-04-11T10:03:08.603Z,4.95
2018-04-11T10:05:37.839Z,5.00
2018-04-11T10:08:06.626Z,4.47
2018-04-11T10:10:35.423Z,4.65
2018-04-11T10:13:04.266Z,3.97
2018-04-11T10:15:33.058Z,4.55
2018-04-11T10:18:01.847Z,4.72
2018-04-11T10:20:30.641Z,5.37
2018-04-11T10:22:59.974Z,5.20
2018-04-11T10:25:28.794Z,4.90
2018-04-11T10:27:57.591Z,4.95
2018-04-11T10:30:26.394Z,4.97
2018-04-11T10:32:55.179Z,4.60
2018-04-11T10:35:23.965Z,4.35
2018-04-11T10:37:52.753Z,5.03
2018-04-11T10:40:21.543Z,5.03
2018-04-11T10:42:51.120Z,4.47
2018-04-11T10:45:19.591Z,4.90
2018-04-11T10:47:49.383Z,4.95
2018-04-11T10:50:18.947Z,3.95
2018-04-11T10:52:47.779Z,4.18
2018-04-11T10:55:16.737Z,4.32
2018-04-11T10:57:45.571Z,4.22
2018-04-11T11:00:14.378Z,4.65
2018-04-11T11:02:43.198Z,4.57
2018-04-11T11:05:11.998Z,3.70
2018-04-11T11:07:40.789Z,3.90
2018-04-11T11:10:09.354Z,4.18
2018-04-11T11:12:38.003Z,3.45
2018-04-11T11:15:06.798Z,3.25
2018-04-11T11:17:35.601Z,4.20
2018-04-11T11:20:04.462Z,3.45
2018-04-11T11:22:33.798Z,3.83
2018-04-11T11:25:02.361Z,3.75
2018-04-11T11:27:31.201Z,3.65
2018-04-11T11:30:00.010Z,4.28
2018-04-11T11:32:29.350Z,3.62
2018-04-11T11:34:57.917Z,3.42
2018-04-11T11:37:26.149Z,3.25
2018-04-11T11:39:54.732Z,3.97
2018-04-11T11:42:23.306Z,2.72
2018-04-11T11:44:52.123Z,3.12
2018-04-11T11:47:20.932Z,2.80
2018-04-11T11:49:49.465Z,3.90
2018-04-11T11:52:18.297Z,3.60
2018-04-11T11:54:47.094Z,3.80
2018-04-11T11:57:16.668Z,3.12
2018-04-11T11:59:47.118Z,3.65
2018-04-11T12:02:15.599Z,3.20
2018-04-11T12:04:44.170Z,3.60
2018-04-11T12:07:12.998Z,3.10
2018-04-11T12:09:42.558Z,3.45
2018-04-11T12:12:11.360Z,3.50
2018-04-11T12:14:40.152Z,3.40
2018-04-11T12:17:08.950Z,4.43
2018-04-11T12:19:37.750Z,3.80
2018-04-11T12:22:07.308Z,3.87
2018-04-11T12:24:36.102Z,3.20
2018-04-11T12:27:04.898Z,3.03
2018-04-11T12:29:33.723Z,3.17
2018-04-11T12:32:03.322Z,3.00
2018-04-11T12:34:32.285Z,2.92
2018-04-11T12:37:01.083Z,2.97
2018-04-11T12:39:29.887Z,2.83
2018-04-11T12:41:58.711Z,3.33
2018-04-11T12:44:28.278Z,3.05
2018-04-11T12:46:57.620Z,2.62
2018-04-11T12:49:26.437Z,3.65
2018-04-11T12:51:55.256Z,3.33
2018-04-11T12:54:23.833Z,3.78
2018-04-11T12:56:52.625Z,4.05
2018-04-11T12:59:21.465Z,3.25
2018-04-11T13:01:51.033Z,3.30
2018-04-11T13:04:19.497Z,3.45
2018-04-11T13:06:48.851Z,3.20
2018-04-11T13:09:18.398Z,3.60
2018-04-11T13:11:47.190Z,5.78
2018-04-11T13:14:16.737Z,6.43
2018-04-11T13:16:45.549Z,7.20
2018-04-11T13:19:14.882Z,6.62
2018-04-11T13:21:43.489Z,6.22
2018-04-11T13:24:12.047Z,6.53
2018-04-11T13:26:40.834Z,5.72
2018-04-11T13:29:09.629Z,5.80
2018-04-11T13:31:37.518Z,5.97
2018-04-11T13:34:05.989Z,5.93
2018-04-11T13:36:34.535Z,6.00
2018-04-11T13:39:04.096Z,7.53
2018-04-11T13:41:33.401Z,6.40
2018-04-11T13:44:01.710Z,5.60
2018-04-11T13:46:30.205Z,4.90
2018-04-11T13:48:59.537Z,5.15
2018-04-11T13:51:28.078Z,5.87
2018-04-11T13:53:56.383Z,6.17
2018-04-11T13:56:24.950Z,4.87
2018-04-11T13:58:53.947Z,5.90
2018-04-11T14:01:23.282Z,4.55
2018-04-11T14:03:52.116Z,5.55
2018-04-11T14:06:21.555Z,4.93
2018-04-11T14:08:49.853Z,5.07
2018-04-11T14:11:18.321Z,4.97
2018-04-11T14:13:46.894Z,4.25
2018-04-11T14:16:15.467Z,5.25
2018-04-11T14:18:44.275Z,3.72
2018-04-11T14:21:13.081Z,4.83
2018-04-11T14:23:41.900Z,4.47
2018-04-11T14:26:10.464Z,3.70
2018-04-11T14:28:39.036Z,4.50
2018-04-11T14:31:07.859Z,3.78
2018-04-11T14:33:36.663Z,3.83
2018-04-11T14:36:05.231Z,4.40
2018-04-11T14:38:34.031Z,4.53
2018-04-11T14:41:02.597Z,4.22
2018-04-11T14:43:31.394Z,4.03
2018-04-11T14:46:00.174Z,4.10
2018-04-11T14:48:28.755Z,4.35
2018-04-11T14:50:57.561Z,4.05
2018-04-11T14:53:26.369Z,3.55
2018-04-11T14:55:55.166Z,3.80
2018-04-11T14:58:24.738Z,4.43
2018-04-11T15:00:53.908Z,4.50
2018-04-11T15:03:22.714Z,4.65
2018-04-11T15:05:51.736Z,4.95
2018-04-11T15:08:20.765Z,5.75
2018-04-11T15:10:50.338Z,4.87
2018-04-11T15:13:19.144Z,4.00
2018-04-11T15:15:48.715Z,5.82
2018-04-11T15:18:17.523Z,5.95
2018-04-11T15:20:46.352Z,4.22
2018-04-11T15:23:15.962Z,4.95
2018-04-11T15:25:45.641Z,5.00
2018-04-11T15:28:15.241Z,5.12
2018-04-11T15:30:44.042Z,5.10
2018-04-11T15:33:13.625Z,6.10
2018-04-11T15:35:42.415Z,6.45
2018-04-11T15:38:11.230Z,5.82
2018-04-11T15:40:40.068Z,6.20
2018-04-11T15:43:08.870Z,6.40
2018-04-11T15:45:38.278Z,5.05
2018-04-11T15:48:07.074Z,5.57
2018-04-11T15:50:35.873Z,5.53
2018-04-11T15:53:04.677Z,5.35
2018-04-11T15:55:33.493Z,5.47
2018-04-11T15:58:03.062Z,5.70
2018-04-11T16:00:31.630Z,6.25
2018-04-11T16:03:00.426Z,5.62
2018-04-11T16:05:29.255Z,6.87
2018-04-11T16:07:58.055Z,6.62
2018-04-11T16:10:27.670Z,6.18
2018-04-11T16:12:56.490Z,6.43
2018-04-11T16:15:25.315Z,6.70
2018-04-11T16:17:54.175Z,6.60
2018-04-11T16:20:22.998Z,7.80
2018-04-11T16:22:51.801Z,6.90
2018-04-11T16:25:21.380Z,6.18
2018-04-11T16:27:50.190Z,6.80
2018-04-11T16:30:20.620Z,6.78
2018-04-11T16:32:49.423Z,5.93
2018-04-11T16:35:19.549Z,7.65
2018-04-11T16:37:49.125Z,6.07
2018-04-11T16:40:17.920Z,6.82
2018-04-11T16:42:46.731Z,7.53
2018-04-11T16:45:16.305Z,7.72
2018-04-11T16:47:45.205Z,6.50
2018-04-11T16:50:14.001Z,6.82
2018-04-11T16:52:42.580Z,6.72
2018-04-11T16:55:12.262Z,6.70
2018-04-11T16:57:41.091Z,6.00
2018-04-11T17:00:10.336Z,6.35
2018-04-11T17:02:39.135Z,6.25
2018-04-11T17:05:07.930Z,5.55
2018-04-11T17:07:36.731Z,5.70
2018-04-11T17:10:05.314Z,5.50
2018-04-11T17:12:34.145Z,6.40
2018-04-11T17:15:03.346Z,7.03
2018-04-11T17:17:32.671Z,5.65
2018-04-11T17:20:01.259Z,5.70
2018-04-11T17:22:41.022Z,6.40
2018-04-11T17:25:21.656Z,6.20
2018-04-11T17:28:02.007Z,5.53
2018-04-11T17:30:42.715Z,6.47
2018-04-11T17:33:11.533Z,6.03
2018-04-11T17:35:41.274Z,7.05
2018-04-11T17:38:10.859Z,6.12
2018-04-11T17:40:40.390Z,7.30
2018-04-11T17:43:11.005Z,7.15
2018-04-11T17:45:39.830Z,8.05
2018-04-11T17:48:08.714Z,7.97
2018-04-11T17:50:38.115Z,12.57
2018-04-11T17:53:07.723Z,8.57
2018-04-11T17:55:36.531Z,9.15
2018-04-11T17:58:05.344Z,9.48
2018-04-11T18:00:34.157Z,8.65
2018-04-11T18:03:03.009Z,9.80
2018-04-11T18:05:31.822Z,9.50
2018-04-11T18:08:00.640Z,7.93
2018-04-11T18:10:29.454Z,8.50
2018-04-11T18:12:59.198Z,8.75
2018-04-11T18:15:28.063Z,8.20
2018-04-11T18:17:57.786Z,8.38
2018-04-11T18:20:26.608Z,8.82
2018-04-11T18:22:55.817Z,9.20
2018-04-11T18:25:24.617Z,7.85
2018-04-11T18:27:53.752Z,8.15
2018-04-11T18:30:23.330Z,7.35
2018-04-11T18:32:51.904Z,7.30
2018-04-11T18:35:20.711Z,7.22
2018-04-11T18:37:49.522Z,8.00
2018-04-11T18:40:18.340Z,7.65
2018-04-11T18:42:46.832Z,7.70
2018-04-11T18:45:15.647Z,6.60
2018-04-11T18:47:44.481Z,7.25
2018-04-11T18:50:13.310Z,7.35
2018-04-11T18:52:42.170Z,6.75
2018-04-11T18:55:10.760Z,6.57
2018-04-11T18:57:39.582Z,8.35
2018-04-11T19:00:08.116Z,7.12
2018-04-11T19:02:37.134Z,7.12
2018-04-11T19:05:05.942Z,5.70
2018-04-11T19:07:34.755Z,9.18
2018-04-11T19:10:03.571Z,5.82
2018-04-11T19:12:33.143Z,6.45
2018-04-11T19:15:01.955Z,6.68
2018-04-11T19:17:30.968Z,6.28
2018-04-11T19:20:01.344Z,5.80
2018-04-11T19:22:30.159Z,5.30
2018-04-11T19:24:58.980Z,6.35
2018-04-11T19:27:28.563Z,6.05
2018-04-11T19:29:57.145Z,6.20
2018-04-11T19:32:25.953Z,6.25
2018-04-11T19:34:55.569Z,6.05
2018-04-11T19:37:24.382Z,5.90
2018-04-11T19:39:53.460Z,6.95
2018-04-11T19:42:22.275Z,6.15
2018-04-11T19:44:50.861Z,6.00
2018-04-11T19:47:19.454Z,8.73
2018-04-11T19:49:48.102Z,6.37
2018-04-11T19:52:16.993Z,7.30
2018-04-11T19:54:47.242Z,7.30
2018-04-11T19:57:16.038Z,6.20
2018-04-11T19:59:44.607Z,6.35
2018-04-11T20:02:13.402Z,6.30
2018-04-11T20:04:42.207Z,6.15
2018-04-11T20:07:11.459Z,5.80
2018-04-11T20:09:40.772Z,6.70
2018-04-11T20:12:10.383Z,6.80
2018-04-11T20:14:39.717Z,5.90
2018-04-11T20:17:08.303Z,7.12
2018-04-11T20:19:37.094Z,5.70
2018-04-11T20:22:05.578Z,6.25
2018-04-11T20:24:34.143Z,6.70
2018-04-11T20:27:03.192Z,6.62
2018-04-11T20:29:32.008Z,6.97
2018-04-11T20:32:00.824Z,7.05
2018-04-11T20:34:29.646Z,7.10
2018-04-11T20:36:58.443Z,7.30
2018-04-11T20:39:27.252Z,6.72
2018-04-11T20:41:56.845Z,10.30
2018-04-11T20:44:25.421Z,8.25
2018-04-11T20:46:54.229Z,7.40
2018-04-11T20:49:23.810Z,8.15
2018-04-11T20:51:53.330Z,7.40
2018-04-11T20:54:22.564Z,8.10
2018-04-11T20:56:52.136Z,7.22
2018-04-11T20:59:20.597Z,6.60
2018-04-11T21:01:49.412Z,7.37
2018-04-11T21:04:18.235Z,7.50
2018-04-11T21:06:47.911Z,6.32
2018-04-11T21:09:16.727Z,8.55
2018-04-11T21:11:46.303Z,7.10
2018-04-11T21:14:15.130Z,6.70
2018-04-11T21:16:44.708Z,7.28
2018-04-11T21:19:13.196Z,7.87
2018-04-11T21:21:42.772Z,9.52
2018-04-11T21:24:11.254Z,8.63
2018-04-11T21:26:40.065Z,8.38
2018-04-11T21:29:08.883Z,7.30
2018-04-11T21:31:38.458Z,7.78
2018-04-11T21:34:07.268Z,6.75
2018-04-11T21:36:36.858Z,8.38
2018-04-11T21:39:04.989Z,7.72
2018-04-11T21:41:33.811Z,17.75
2018-04-11T21:44:02.628Z,7.32
2018-04-11T21:46:32.238Z,7.57
2018-04-11T21:49:01.827Z,8.07
2018-04-11T21:51:30.839Z,7.55
2018-04-11T21:54:00.423Z,11.12
2018-04-11T21:56:29.251Z,11.68
2018-04-11T21:58:58.831Z,9.30
2018-04-11T22:01:27.630Z,7.35
2018-04-11T22:03:56.443Z,7.75
2018-04-11T22:06:26.015Z,7.00
2018-04-11T22:08:54.820Z,7.40
2018-04-11T22:11:23.639Z,7.90
2018-04-11T22:13:52.654Z,7.45
2018-04-11T22:16:21.474Z,7.43
2018-04-11T23:02:32.118Z,9.75
2018-04-11T23:05:00.927Z,8.80
2018-04-11T23:07:29.533Z,8.85
2018-04-11T23:09:58.111Z,9.43
2018-04-11T23:12:26.698Z,9.80
2018-04-11T23:14:55.271Z,8.27
2018-04-11T23:17:23.862Z,8.60
2018-04-11T23:19:52.436Z,8.68
2018-04-11T23:22:21.247Z,8.45
2018-04-11T23:24:50.063Z,8.75
2018-04-11T23:27:19.642Z,8.45
2018-04-11T23:29:48.455Z,9.27
2018-04-11T23:32:18.032Z,8.85
2018-04-11T23:34:46.611Z,9.00
2018-04-11T23:37:15.426Z,8.23
2018-04-11T23:39:44.248Z,8.70
2018-04-11T23:42:13.056Z,9.07
2018-04-11T23:44:41.868Z,8.65
2018-04-11T23:47:10.684Z,8.93
2018-04-11T23:49:39.491Z,9.10
2018-04-11T23:52:09.054Z,8.85
2018-04-11T23:54:37.882Z,8.85
2018-04-11T23:57:07.459Z,9.63
2018-04-11T23:59:36.270Z,9.20
